Time;durP1;ratioP1;P1;durP2;ratioP2;P2;SDS_P1;SDS_P2;PMS_P1;PMS_P2;Temp;Humidity;BMP_temperature;BMP_pressure;BME280_temperature;BME280_humidity;BME280_pressure;Samples;Min_cycle;Max_cycle;Signal;HPM_P1;HPM_P2
2021/12/10 00:02:15;;;;;;;9.15;4.97;;;6.20;87.70;;;;;;5093201;28;20100;-75
2021/12/10 00:04:43;;;;;;;12.43;5.65;;;6.20;87.90;;;;;;5093202;28;20020;-75
2021/12/10 00:07:24;;;;;;;11.10;5.85;;;6.20;88.10;;;;;;5093184;28;20035;-75
2021/12/10 00:09:59;;;;;;;11.35;5.82;;;6.20;87.90;;;;;;5094662;28;20024;-75
2021/12/10 00:12:29;;;;;;;10.38;5.95;;;6.10;87.80;;;;;;5092912;28;20024;-75
2021/12/10 00:14:55;;;;;;;14.50;5.97;;;6.10;87.80;;;;;;5094351;28;20070;-75
2021/12/10 00:17:22;;;;;;;9.73;5.38;;;6.10;87.90;;;;;;5092737;28;20492;-75
2021/12/10 00:19:53;;;;;;;8.93;5.60;;;6.10;87.90;;;;;;5094177;28;20154;-75
2021/12/10 00:22:40;;;;;;;9.88;5.13;;;6.10;87.90;;;;;;5093945;28;20046;-75
2021/12/10 00:25:13;;;;;;;9.25;5.25;;;6.10;87.80;;;;;;5094153;28;20039;-75
2021/12/10 00:27:40;;;;;;;11.77;6.05;;;6.10;87.70;;;;;;5091797;28;20043;-74
2021/12/10 00:30:14;;;;;;;10.98;6.28;;;6.10;87.70;;;;;;5091698;28;20040;-75
2021/12/10 00:32:44;;;;;;;12.73;6.10;;;6.00;87.70;;;;;;5091823;28;20043;-75
2021/12/10 00:35:15;;;;;;;12.95;6.68;;;6.00;87.60;;;;;;5074754;28;20432;-75
2021/12/10 00:37:41;;;;;;;10.45;6.00;;;5.90;87.50;;;;;;5091673;28;20032;-75
2021/12/10 00:40:09;;;;;;;10.07;5.93;;;5.90;87.60;;;;;;5091632;28;20031;-74
2021/12/10 00:42:36;;;;;;;17.73;7.25;;;5.80;87.50;;;;;;5091599;28;20435;-75
2021/12/10 00:45:05;;;;;;;9.15;5.32;;;5.80;87.70;;;;;;5091472;28;20032;-75
2021/12/10 00:47:32;;;;;;;10.38;6.20;;;5.80;88.50;;;;;;5091412;28;20028;-75
2021/12/10 00:49:58;;;;;;;10.43;5.82;;;5.80;88.50;;;;;;5091274;28;20162;-75
2021/12/10 00:52:25;;;;;;;12.18;6.47;;;5.80;88.40;;;;;;5091379;28;20033;-75
2021/12/10 00:54:51;;;;;;;13.68;6.47;;;5.80;88.20;;;;;;5091375;28;20066;-74
2021/12/10 00:57:17;;;;;;;10.38;6.03;;;5.80;88.20;;;;;;5091316;28;20083;-75
2021/12/10 00:59:45;;;;;;;10.98;6.40;;;5.80;88.00;;;;;;5093280;28;20504;-74
2021/12/10 01:05:34;;;;;;;11.88;6.47;;;5.80;87.90;;;;;;5093356;28;20031;-74
2021/12/10 01:08:00;;;;;;;10.38;5.60;;;5.80;87.90;;;;;;5093257;28;20028;-74
2021/12/10 01:10:51;;;;;;;8.25;5.07;;;5.80;87.90;;;;;;5092012;28;20028;-74
2021/12/10 01:13:25;;;;;;;10.80;5.93;;;5.80;88.40;;;;;;5093353;28;20028;-74
2021/12/10 01:16:14;;;;;;;10.55;5.50;;;5.80;88.30;;;;;;5091637;28;20105;-74
2021/12/10 01:24:50;;;;;;;14.27;6.07;;;5.80;88.40;;;;;;5093253;28;20096;-74
2021/12/10 01:27:33;;;;;;;10.50;6.45;;;5.90;88.20;;;;;;5093119;28;20061;-74
2021/12/10 01:30:04;;;;;;;13.55;6.93;;;5.90;88.10;;;;;;5091629;28;20024;-74
2021/12/10 01:32:37;;;;;;;11.82;6.43;;;5.90;87.90;;;;;;5092892;28;20053;-74
2021/12/10 01:35:09;;;;;;;11.00;6.05;;;5.90;87.70;;;;;;5092902;28;20487;-74
2021/12/10 01:37:35;;;;;;;8.88;5.88;;;5.90;87.70;;;;;;5091416;28;20023;-74
2021/12/10 01:40:03;;;;;;;11.73;6.03;;;6.00;87.60;;;;;;5092811;28;20031;-74
2021/12/10 01:42:38;;;;;;;8.15;5.82;;;5.90;87.50;;;;;;5092819;28;20103;-74
2021/12/10 01:45:18;;;;;;;13.00;5.93;;;5.80;87.40;;;;;;5092613;28;20054;-75
2021/12/10 01:47:46;;;;;;;9.68;6.00;;;5.80;87.50;;;;;;5092708;28;20422;-74
2021/12/10 01:50:12;;;;;;;7.45;4.88;;;5.70;87.50;;;;;;5092834;28;20032;-74
2021/12/10 01:52:38;;;;;;;12.40;5.97;;;5.70;87.70;;;;;;5091369;28;20020;-74
2021/12/10 01:55:05;;;;;;;10.02;5.90;;;5.60;87.60;;;;;;5092702;28;20020;-75
2021/12/10 01:57:34;;;;;;;10.55;6.22;;;5.50;87.80;;;;;;5091292;28;20356;-75
2021/12/10 02:00:01;;;;;;;12.07;6.63;;;5.50;87.90;;;;;;5092620;28;20026;-74
2021/12/10 02:02:31;;;;;;;10.68;6.00;;;5.40;87.90;;;;;;5091388;28;20119;-74
2021/12/10 02:04:57;;;;;;;11.20;6.45;;;5.30;88.00;;;;;;5092584;28;20020;-74
2021/12/10 02:07:27;;;;;;;7.22;5.13;;;5.30;88.20;;;;;;5091299;28;20024;-74
2021/12/10 02:09:53;;;;;;;9.55;5.40;;;5.20;88.30;;;;;;5092450;28;20027;-74
2021/12/10 02:12:20;;;;;;;12.18;6.15;;;5.10;88.30;;;;;;5091117;28;20070;-75
2021/12/10 02:14:51;;;;;;;9.48;5.65;;;5.10;88.40;;;;;;5092475;28;20024;-74
2021/12/10 02:17:17;;;;;;;7.45;5.20;;;5.10;88.40;;;;;;5091109;28;20070;-75
2021/12/10 02:19:42;;;;;;;8.85;5.68;;;5.10;88.40;;;;;;5092518;28;20052;-74
2021/12/10 02:22:08;;;;;;;7.80;5.10;;;5.10;88.50;;;;;;5093719;28;20016;-74
2021/12/10 02:24:34;;;;;;;9.25;5.22;;;5.00;88.40;;;;;;5096435;28;20036;-75
2021/12/10 02:27:04;;;;;;;9.73;5.55;;;5.00;88.40;;;;;;5096345;28;20065;-74
2021/12/10 02:29:33;;;;;;;8.60;4.82;;;4.90;88.40;;;;;;5094867;28;20385;-74
2021/12/10 02:31:58;;;;;;;7.65;5.20;;;4.90;88.40;;;;;;5094854;28;20016;-74
2021/12/10 02:34:26;;;;;;;8.82;5.75;;;4.90;88.40;;;;;;5096271;28;20356;-74
2021/12/10 02:36:52;;;;;;;8.75;5.22;;;4.90;88.50;;;;;;5094770;28;20051;-74
2021/12/10 02:39:58;;;;;;;8.35;5.10;;;4.90;88.50;;;;;;5096113;28;20016;-74
2021/12/10 02:42:24;;;;;;;7.25;4.90;;;4.90;88.50;;;;;;5096025;28;20032;-75
2021/12/10 02:44:50;;;;;;;9.32;5.00;;;4.80;88.50;;;;;;5094554;28;20403;-75
2021/12/10 02:47:16;;;;;;;7.50;5.07;;;4.80;88.50;;;;;;5096045;28;20032;-75
2021/12/10 02:49:42;;;;;;;11.88;5.00;;;4.80;88.50;;;;;;5094674;28;20035;-75
2021/12/10 02:52:10;;;;;;;8.35;4.80;;;4.80;88.50;;;;;;5095762;28;20032;-75
2021/12/10 02:54:36;;;;;;;9.70;4.57;;;4.80;88.50;;;;;;5094654;28;20399;-75
2021/12/10 02:57:09;;;;;;;6.65;4.32;;;4.80;88.40;;;;;;5095753;28;20020;-74
2021/12/10 02:59:37;;;;;;;10.35;4.93;;;4.70;88.40;;;;;;5094766;28;20028;-74
2021/12/10 03:02:06;;;;;;;8.13;4.50;;;4.70;88.40;;;;;;5094325;28;20024;-75
2021/12/10 03:04:33;;;;;;;8.30;4.63;;;4.70;88.40;;;;;;5095700;28;20103;-75
2021/12/10 03:07:00;;;;;;;8.68;4.35;;;4.70;88.40;;;;;;5095551;28;20020;-75
2021/12/10 03:09:27;;;;;;;6.55;4.35;;;4.70;88.40;;;;;;5094323;28;20495;-74
2021/12/10 03:11:56;;;;;;;6.82;4.20;;;4.70;88.40;;;;;;5094145;28;20086;-74
2021/12/10 03:14:26;;;;;;;7.43;4.43;;;4.70;88.40;;;;;;5095483;28;20081;-75
2021/12/10 03:16:54;;;;;;;11.07;4.53;;;4.70;88.40;;;;;;5095155;28;20400;-75
2021/12/10 03:19:20;;;;;;;7.10;4.45;;;4.60;88.30;;;;;;5093967;28;20065;-74
2021/12/10 03:21:49;;;;;;;10.05;4.70;;;4.60;88.30;;;;;;5095187;28;20059;-75
2021/12/10 03:24:17;;;;;;;7.68;4.18;;;4.60;88.30;;;;;;5093948;28;20031;-75
2021/12/10 03:26:43;;;;;;;8.38;4.30;;;4.60;88.30;;;;;;5093954;28;20066;-75
2021/12/10 03:29:09;;;;;;;7.97;4.10;;;4.50;88.20;;;;;;5095190;28;20035;-75
2021/12/10 03:31:35;;;;;;;6.75;3.90;;;4.50;88.20;;;;;;5095113;28;20117;-74
2021/12/10 03:34:03;;;;;;;6.20;3.88;;;4.50;88.30;;;;;;5094723;28;20388;-75
2021/12/10 03:37:21;;;;;;;5.45;3.55;;;4.50;88.30;;;;;;5093797;28;20031;-75
2021/12/10 03:39:49;;;;;;;4.80;3.70;;;4.50;88.20;;;;;;5094847;28;20031;-75
2021/12/10 03:42:18;;;;;;;7.05;4.00;;;4.50;88.20;;;;;;5090949;28;20036;-74
2021/12/10 03:44:43;;;;;;;7.75;4.07;;;4.40;88.20;;;;;;5094894;28;20058;-74
2021/12/10 03:47:10;;;;;;;7.53;4.13;;;4.40;88.20;;;;;;5094680;28;20063;-75
2021/12/10 03:49:37;;;;;;;10.52;4.60;;;4.40;88.20;;;;;;5093461;28;20100;-75
2021/12/10 03:52:06;;;;;;;6.03;3.65;;;4.40;88.20;;;;;;5093352;28;20113;-74
2021/12/10 03:54:32;;;;;;;5.32;3.67;;;4.30;88.20;;;;;;5093337;28;20169;-75
2021/12/10 03:56:58;;;;;;;6.30;4.20;;;4.30;88.20;;;;;;5094735;28;20019;-75
2021/12/10 03:59:25;;;;;;;7.25;4.30;;;4.30;88.20;;;;;;5093269;28;20418;-74
2021/12/10 04:01:56;;;;;;;6.82;3.75;;;4.30;88.20;;;;;;5094578;28;20476;-75
2021/12/10 04:04:30;;;;;;;5.18;3.92;;;4.30;88.30;;;;;;5093175;28;20028;-75
2021/12/10 04:06:56;;;;;;;;;;;4.30;88.30;;;;;;5093601;28;20060;-75
2021/12/10 04:09:24;;;;;;;5.25;3.70;;;4.30;88.20;;;;;;5094735;28;19904;-75
2021/12/10 04:11:51;;;;;;;4.85;3.20;;;4.30;88.30;;;;;;5092915;28;20024;-74
2021/12/10 04:14:17;;;;;;;6.30;3.40;;;4.30;88.20;;;;;;5094333;28;20024;-75
2021/12/10 04:16:43;;;;;;;5.70;3.45;;;4.30;88.30;;;;;;5094024;28;20102;-75
2021/12/10 04:19:12;;;;;;;5.40;3.83;;;4.20;88.20;;;;;;5094165;28;20020;-74
2021/12/10 04:21:41;;;;;;;5.35;3.58;;;4.20;88.20;;;;;;5093095;28;20024;-75
2021/12/10 04:24:17;;;;;;;4.25;3.33;;;4.20;88.20;;;;;;5094096;28;20023;-75
2021/12/10 04:26:44;;;;;;;6.35;3.40;;;4.20;88.20;;;;;;5093995;28;20016;-74
2021/12/10 04:29:10;;;;;;;5.30;3.30;;;4.20;88.20;;;;;;5093793;28;20032;-75
2021/12/10 04:31:37;;;;;;;5.63;3.10;;;4.20;88.30;;;;;;5093898;28;20028;-75
2021/12/10 04:37:24;;;;;;;3.55;2.80;;;4.20;88.40;;;;;;5093904;28;20077;-75
2021/12/10 04:39:51;;;;;;;4.40;2.63;;;4.20;88.40;;;;;;5093793;28;20020;-74
2021/12/10 04:42:21;;;;;;;6.03;3.25;;;4.10;88.20;;;;;;5092482;28;20024;-75
2021/12/10 04:44:51;;;;;;;6.53;3.13;;;4.10;88.20;;;;;;5093226;28;20065;-75
2021/12/10 04:47:16;;;;;;;4.38;2.50;;;4.10;88.30;;;;;;5092479;28;20024;-75
2021/12/10 04:49:42;;;;;;;4.95;2.75;;;4.10;88.20;;;;;;5093511;28;20498;-74
2021/12/10 04:52:07;;;;;;;4.18;2.70;;;4.10;88.20;;;;;;5092210;28;20110;-74
2021/12/10 04:54:34;;;;;;;5.82;2.53;;;4.10;88.30;;;;;;5092141;28;20020;-75
2021/12/10 04:57:00;;;;;;;6.70;2.60;;;4.10;88.40;;;;;;5092166;28;20073;-74
2021/12/10 04:59:30;;;;;;;4.65;2.78;;;4.10;89.00;;;;;;5093370;28;20103;-75
2021/12/10 05:05:18;;;;;;;4.25;2.88;;;4.10;88.30;;;;;;5093390;28;20069;-75
2021/12/10 05:07:44;;;;;;;7.72;2.78;;;4.10;88.30;;;;;;5093247;28;20028;-75
2021/12/10 05:10:13;;;;;;;4.95;2.88;;;4.10;88.30;;;;;;5091985;28;20446;-75
2021/12/10 05:12:39;;;;;;;4.30;2.40;;;4.10;88.70;;;;;;5093225;28;20024;-75
2021/12/10 05:15:08;;;;;;;6.38;2.85;;;4.10;89.10;;;;;;5093196;28;20016;-75
2021/12/10 05:17:35;;;;;;;9.45;3.60;;;4.10;89.10;;;;;;5092843;28;20070;-75
2021/12/10 05:23:23;;;;;;;5.30;2.92;;;4.10;89.00;;;;;;5093015;28;20065;-75
2021/12/10 05:25:50;;;;;;;7.22;3.20;;;4.10;89.00;;;;;;5093049;28;20537;-74
2021/12/10 05:28:16;;;;;;;6.50;3.30;;;4.10;88.90;;;;;;5093024;28;20352;-74
2021/12/10 05:30:43;;;;;;;5.85;2.97;;;4.00;88.70;;;;;;5093156;28;20056;-75
2021/12/10 05:33:14;;;;;;;4.85;2.55;;;4.00;88.80;;;;;;5091546;28;20042;-74
2021/12/10 05:35:40;;;;;;;5.80;3.05;;;4.00;89.30;;;;;;5092835;28;20026;-75
2021/12/10 05:38:06;;;;;;;6.70;3.08;;;4.00;89.40;;;;;;5091598;28;20024;-75
2021/12/10 05:40:32;;;;;;;5.35;2.60;;;4.00;89.70;;;;;;5092517;28;20028;-74
2021/12/10 05:42:57;;;;;;;4.65;2.40;;;4.00;90.10;;;;;;5091519;28;20467;-74
2021/12/10 05:45:24;;;;;;;7.35;3.05;;;4.00;90.20;;;;;;5091856;28;20492;-74
2021/12/10 05:47:51;;;;;;;6.47;2.92;;;4.00;90.40;;;;;;5092838;28;20020;-75
2021/12/10 05:50:20;;;;;;;7.55;2.60;;;4.00;90.40;;;;;;5091360;28;20027;-75
2021/12/10 05:52:45;;;;;;;5.80;3.00;;;4.00;90.30;;;;;;5091427;28;20149;-75
2021/12/10 05:55:12;;;;;;;5.05;2.47;;;4.00;90.40;;;;;;5091191;28;20528;-75
2021/12/10 05:57:38;;;;;;;8.82;3.35;;;4.00;90.30;;;;;;5095163;28;20067;-76
2021/12/10 06:00:11;;;;;;;5.93;2.42;;;4.00;90.30;;;;;;5096846;28;20088;-75
2021/12/10 06:02:38;;;;;;;4.00;2.70;;;4.10;90.20;;;;;;5095467;28;20217;-75
2021/12/10 06:05:04;;;;;;;4.13;2.20;;;4.10;90.50;;;;;;5096846;28;20410;-75
2021/12/10 06:07:30;;;;;;;5.90;2.50;;;4.10;90.80;;;;;;5096762;28;20097;-75
2021/12/10 06:09:56;;;;;;;5.32;2.70;;;4.10;90.80;;;;;;5096739;28;20499;-75
2021/12/10 06:12:22;;;;;;;6.35;3.00;;;4.20;91.20;;;;;;5096612;28;20500;-75
2021/12/10 06:14:47;;;;;;;6.63;2.42;;;4.20;90.80;;;;;;5095270;28;20116;-75
2021/12/10 06:17:13;;;;;;;5.60;2.00;;;4.20;90.70;;;;;;5095106;28;20459;-75
2021/12/10 06:19:39;;;;;;;5.50;2.33;;;4.20;90.90;;;;;;5095153;28;20020;-75
2021/12/10 06:22:05;;;;;;;5.65;2.35;;;4.20;91.10;;;;;;5096989;28;20038;-75
2021/12/10 06:24:30;;;;;;;6.10;2.22;;;4.20;91.00;;;;;;5095031;28;20016;-75
2021/12/10 06:26:57;;;;;;;7.10;2.40;;;4.30;90.90;;;;;;5095143;28;20050;-75
2021/12/10 06:29:24;;;;;;;6.07;2.20;;;4.30;90.80;;;;;;5095093;28;20020;-75
2021/12/10 06:31:52;;;;;;;2.97;1.70;;;4.20;90.60;;;;;;5096229;28;20048;-75
2021/12/10 06:34:17;;;;;;;4.40;2.20;;;4.30;90.80;;;;;;5095358;28;20476;-75
2021/12/10 06:36:43;;;;;;;3.67;1.85;;;4.30;90.70;;;;;;5094920;28;20047;-75
2021/12/10 06:39:09;;;;;;;8.27;2.50;;;4.30;90.60;;;;;;5094905;28;20020;-75
2021/12/10 06:41:35;;;;;;;6.10;2.60;;;4.30;90.60;;;;;;5096132;28;20024;-75
2021/12/10 06:44:04;;;;;;;5.10;2.20;;;4.30;90.50;;;;;;5096073;28;20498;-75
2021/12/10 06:47:05;;;;;;;5.03;2.08;;;4.30;90.40;;;;;;5094727;28;20054;-75
2021/12/10 06:52:54;;;;;;;6.00;2.22;;;4.30;90.20;;;;;;5096052;28;20039;-75
2021/12/10 06:55:20;;;;;;;8.02;2.40;;;4.40;90.10;;;;;;5095831;28;20016;-75
2021/12/10 06:57:46;;;;;;;3.80;1.80;;;4.30;90.00;;;;;;5095675;28;20024;-75
2021/12/10 07:00:42;;;;;;;4.70;2.20;;;4.30;90.00;;;;;;5095749;28;20039;-74
2021/12/10 07:03:13;;;;;;;3.45;1.80;;;4.40;90.00;;;;;;5094428;28;20024;-73
2021/12/10 07:05:39;;;;;;;4.88;1.90;;;4.30;89.90;;;;;;5095512;28;20452;-74
2021/12/10 07:08:05;;;;;;;28.88;3.67;;;4.30;89.90;;;;;;5095119;28;20028;-75
2021/12/10 07:10:31;;;;;;;4.20;2.35;;;4.30;89.90;;;;;;5094604;28;20016;-73
2021/12/10 07:12:57;;;;;;;5.45;2.40;;;4.40;89.80;;;;;;5094216;28;20028;-74
2021/12/10 07:15:23;;;;;;;5.72;2.15;;;4.40;89.80;;;;;;5095517;28;20021;-73
2021/12/10 07:17:51;;;;;;;4.93;2.25;;;4.40;89.90;;;;;;5094302;28;20028;-73
2021/12/10 07:20:20;;;;;;;6.03;2.28;;;4.40;89.90;;;;;;5095439;28;20015;-74
2021/12/10 07:22:46;;;;;;;6.35;2.00;;;4.40;89.70;;;;;;5094119;28;20063;-74
2021/12/10 07:25:12;;;;;;;5.28;2.05;;;4.50;90.20;;;;;;5095514;28;20062;-73
2021/12/10 07:27:38;;;;;;;5.32;1.75;;;4.50;90.10;;;;;;5094244;28;20031;-74
2021/12/10 07:30:06;;;;;;;3.58;1.70;;;4.50;90.00;;;;;;5094104;28;20028;-74
2021/12/10 07:32:32;;;;;;;4.22;2.33;;;4.50;90.10;;;;;;5093972;28;20028;-74
2021/12/10 07:34:58;;;;;;;6.35;2.20;;;4.50;90.30;;;;;;5095435;28;20099;-75
2021/12/10 07:37:23;;;;;;;7.10;2.28;;;4.60;90.30;;;;;;5095344;28;20452;-74
2021/12/10 07:39:49;;;;;;;3.45;1.75;;;4.60;90.20;;;;;;5095151;28;20035;-74
2021/12/10 07:42:15;;;;;;;3.97;2.10;;;4.50;90.10;;;;;;5093877;28;20047;-75
2021/12/10 07:44:40;;;;;;;4.07;2.33;;;4.60;90.00;;;;;;5093841;28;20369;-74
2021/12/10 07:47:09;;;;;;;4.10;1.95;;;4.60;90.00;;;;;;5093512;28;20029;-75
2021/12/10 07:49:37;;;;;;;4.68;2.03;;;4.60;90.00;;;;;;5093553;28;20024;-75
2021/12/10 07:52:06;;;;;;;3.17;1.88;;;4.70;89.80;;;;;;5094797;28;20027;-74
2021/12/10 07:54:32;;;;;;;4.40;1.75;;;4.70;89.70;;;;;;5093484;28;20039;-74
2021/12/10 07:56:58;;;;;;;9.30;2.35;;;4.70;89.60;;;;;;5094753;28;20032;-74
2021/12/10 07:59:24;;;;;;;3.75;1.80;;;4.80;89.70;;;;;;5093464;28;20114;-75
2021/12/10 08:01:50;;;;;;;4.05;1.70;;;4.80;89.70;;;;;;5093544;28;20020;-75
2021/12/10 08:04:15;;;;;;;7.50;1.98;;;4.80;89.60;;;;;;5093164;28;20476;-74
2021/12/10 08:06:41;;;;;;;4.88;2.00;;;4.80;89.80;;;;;;5093232;28;20046;-75
2021/12/10 08:09:08;;;;;;;3.30;2.08;;;4.90;90.00;;;;;;5093047;28;20032;-74
2021/12/10 08:11:35;;;;;;;3.63;1.73;;;4.90;90.10;;;;;;5092995;28;20111;-74
2021/12/10 08:14:01;;;;;;;4.57;1.77;;;4.90;90.20;;;;;;5094226;28;20035;-74
2021/12/10 08:16:26;;;;;;;4.53;1.85;;;4.90;90.40;;;;;;5094238;28;20112;-74
2021/12/10 08:18:53;;;;;;;2.35;1.83;;;4.90;90.40;;;;;;5092637;28;20027;-74
2021/12/10 08:21:20;;;;;;;6.55;2.40;;;4.90;90.30;;;;;;5092252;28;20024;-74
2021/12/10 08:23:46;;;;;;;2.35;1.58;;;4.90;90.40;;;;;;5094325;28;20020;-74
2021/12/10 08:26:12;;;;;;;5.18;2.30;;;4.90;90.50;;;;;;5092755;28;20515;-74
2021/12/10 08:28:39;;;;;;;4.53;2.03;;;4.90;90.40;;;;;;5092858;28;20024;-74
2021/12/10 08:31:05;;;;;;;8.85;2.05;;;5.00;90.30;;;;;;5092599;28;20032;-74
2021/12/10 08:33:32;;;;;;;6.20;2.20;;;5.00;90.30;;;;;;5092670;28;20094;-75
2021/12/10 08:36:02;;;;;;;4.25;2.03;;;5.00;90.20;;;;;;5093863;28;20480;-74
2021/12/10 08:38:29;;;;;;;2.88;2.05;;;5.00;90.10;;;;;;5092439;28;20028;-74
2021/12/10 08:41:02;;;;;;;3.58;2.08;;;5.10;90.10;;;;;;5092333;28;20028;-73
2021/12/10 08:43:29;;;;;;;6.38;1.95;;;5.10;90.30;;;;;;5092358;28;20028;-74
2021/12/10 08:45:55;;;;;;;6.22;2.15;;;5.10;90.30;;;;;;5093549;28;20480;-74
2021/12/10 08:48:24;;;;;;;4.47;2.10;;;5.10;90.30;;;;;;5092391;28;20135;-74
2021/12/10 08:50:51;;;;;;;2.78;2.05;;;5.10;90.30;;;;;;5092241;28;20027;-73
2021/12/10 08:53:17;;;;;;;3.08;2.03;;;5.20;90.30;;;;;;5092401;28;20412;-74
2021/12/10 08:55:48;;;;;;;7.55;2.10;;;5.20;90.10;;;;;;5092202;28;20020;-74
2021/12/10 08:58:14;;;;;;;4.82;2.47;;;5.20;90.00;;;;;;5093488;28;20066;-73
2021/12/10 09:00:44;;;;;;;10.60;2.70;;;5.20;89.80;;;;;;5092088;28;20048;-74
2021/12/10 09:03:10;;;;;;;2.75;1.90;;;5.20;89.70;;;;;;5092064;28;20074;-74
2021/12/10 09:05:36;;;;;;;6.57;2.40;;;5.20;89.60;;;;;;5092060;28;20017;-74
2021/12/10 09:08:03;;;;;;;4.68;2.00;;;5.20;89.30;;;;;;5093280;28;20020;-73
2021/12/10 09:10:34;;;;;;;4.65;2.00;;;5.30;89.30;;;;;;5091991;28;20016;-73
2021/12/10 09:13:00;;;;;;;6.85;2.13;;;5.30;89.00;;;;;;5091853;28;20051;-73
2021/12/10 09:15:28;;;;;;;5.07;2.13;;;5.30;88.80;;;;;;5093070;28;20051;-74
2021/12/10 09:17:58;;;;;;;8.75;2.65;;;5.30;88.70;;;;;;5091735;28;20020;-74
2021/12/10 09:20:31;;;;;;;6.25;2.33;;;5.30;88.40;;;;;;5091789;28;20027;-73
2021/12/10 09:22:57;;;;;;;8.07;2.70;;;5.40;88.40;;;;;;5092932;28;20095;-73
2021/12/10 09:25:24;;;;;;;5.03;2.15;;;5.40;88.30;;;;;;5092204;28;20173;-73
2021/12/10 09:27:50;;;;;;;5.00;2.22;;;5.40;88.10;;;;;;5093062;28;20024;-73
2021/12/10 09:30:20;;;;;;;5.45;2.58;;;5.50;88.00;;;;;;5091636;28;20074;-74
2021/12/10 09:32:46;;;;;;;4.68;2.10;;;5.50;87.80;;;;;;5092681;28;20028;-73
2021/12/10 09:35:14;;;;;;;4.07;2.13;;;5.50;87.70;;;;;;5091791;28;20371;-73
2021/12/10 09:37:40;;;;;;;5.35;2.08;;;5.60;87.60;;;;;;5091665;28;20024;-73
2021/12/10 09:40:11;;;;;;;3.25;1.63;;;5.60;87.50;;;;;;5092923;28;20107;-73
2021/12/10 09:42:37;;;;;;;4.97;2.30;;;5.60;87.70;;;;;;5092842;28;20396;-74
2021/12/10 09:45:05;;;;;;;6.78;2.22;;;5.70;87.70;;;;;;5091449;28;20024;-73
2021/12/10 09:47:31;;;;;;;4.00;2.20;;;5.70;87.50;;;;;;5091511;28;20028;-74
2021/12/10 09:49:56;;;;;;;5.55;2.20;;;5.60;87.20;;;;;;5091378;28;20024;-73
2021/12/10 09:52:25;;;;;;;6.00;2.30;;;5.70;87.00;;;;;;5091324;28;20024;-73
2021/12/10 09:54:51;;;;;;;4.00;2.10;;;5.70;86.90;;;;;;5092575;28;20551;-73
2021/12/10 09:57:24;;;;;;;2.42;1.65;;;5.70;87.10;;;;;;5091393;28;20103;-73
2021/12/10 09:59:52;;;;;;;3.33;1.90;;;5.80;87.30;;;;;;5092683;28;20036;-73
2021/12/10 10:02:20;;;;;;;4.43;1.98;;;5.70;87.30;;;;;;5091347;28;20020;-73
2021/12/10 10:04:49;;;;;;;3.10;1.65;;;5.70;87.20;;;;;;5091468;28;20502;-73
2021/12/10 10:07:24;;;;;;;3.17;1.70;;;5.80;87.40;;;;;;5092479;28;20024;-73
2021/12/10 10:09:53;;;;;;;3.85;1.60;;;5.80;88.30;;;;;;5092748;28;20051;-73
2021/12/10 10:12:31;;;;;;;3.75;1.52;;;5.80;88.80;;;;;;5092500;28;20024;-73
2021/12/10 10:15:03;;;;;;;2.33;1.52;;;5.80;89.00;;;;;;5091266;28;20024;-73
2021/12/10 10:17:29;;;;;;;3.08;1.70;;;5.80;88.80;;;;;;5092328;28;20074;-74
2021/12/10 10:19:56;;;;;;;4.70;1.90;;;5.80;88.40;;;;;;5092790;28;20067;-74
2021/12/10 10:22:26;;;;;;;3.50;1.80;;;5.90;88.10;;;;;;5091206;28;20032;-73
2021/12/10 10:24:53;;;;;;;4.82;2.00;;;5.90;87.70;;;;;;5092461;28;20032;-74
2021/12/10 10:27:30;;;;;;;3.60;1.80;;;5.90;87.40;;;;;;5091262;28;20032;-74
2021/12/10 10:30:01;;;;;;;5.32;2.13;;;6.00;87.20;;;;;;5091010;28;20024;-74
2021/12/10 10:32:29;;;;;;;6.50;2.00;;;6.00;87.00;;;;;;5092391;28;20111;-74
2021/12/10 10:35:01;;;;;;;5.43;1.88;;;6.00;86.80;;;;;;5091068;28;20484;-74
2021/12/10 10:37:28;;;;;;;4.22;1.85;;;6.00;86.60;;;;;;5091082;28;20047;-74
2021/12/10 10:39:54;;;;;;;3.33;1.58;;;6.10;86.60;;;;;;5091027;28;20111;-75
2021/12/10 10:42:24;;;;;;;6.80;1.73;;;6.10;86.70;;;;;;5091126;28;20479;-74
2021/12/10 10:44:51;;;;;;;4.85;1.60;;;6.10;86.50;;;;;;5094656;28;20085;-75
2021/12/10 10:47:20;;;;;;;5.55;1.55;;;6.10;86.30;;;;;;5094717;28;20024;-74
2021/12/10 10:49:54;;;;;;;3.97;1.50;;;6.20;86.10;;;;;;5095885;28;20024;-74
2021/12/10 10:52:28;;;;;;;6.38;1.80;;;6.20;86.00;;;;;;5094521;28;20095;-74
2021/12/10 10:55:00;;;;;;;3.08;1.67;;;6.20;85.80;;;;;;5095821;28;20047;-75
2021/12/10 10:57:29;;;;;;;3.97;1.95;;;6.30;85.60;;;;;;5095830;28;20012;-74
2021/12/10 11:00:02;;;;;;;5.32;2.00;;;6.30;85.40;;;;;;5094511;28;20031;-74
2021/12/10 11:02:39;;;;;;;5.45;2.05;;;6.40;85.30;;;;;;5094522;28;20024;-74
2021/12/10 11:05:10;;;;;;;5.07;1.65;;;6.40;85.00;;;;;;5095678;28;20031;-74
2021/12/10 11:07:44;;;;;;;6.03;1.90;;;6.50;85.00;;;;;;5094427;28;20073;-74
2021/12/10 11:10:10;;;;;;;4.35;1.65;;;6.50;85.40;;;;;;5095549;28;20020;-74
2021/12/10 11:12:40;;;;;;;4.68;1.90;;;6.50;84.70;;;;;;5095334;28;20117;-75
2021/12/10 11:15:10;;;;;;;5.22;1.60;;;6.50;84.50;;;;;;5094210;28;20020;-74
2021/12/10 11:17:53;;;;;;;3.97;1.42;;;6.60;84.40;;;;;;5095384;28;20471;-74
2021/12/10 11:20:42;;;;;;;7.57;2.05;;;6.60;84.20;;;;;;5094293;28;20032;-74
2021/12/10 11:23:10;;;;;;;5.00;1.92;;;6.60;84.10;;;;;;5094081;28;20027;-74
2021/12/10 11:25:50;;;;;;;5.07;1.58;;;6.60;84.20;;;;;;5095497;28;20039;-73
2021/12/10 11:28:26;;;;;;;5.10;1.65;;;6.60;84.10;;;;;;5094172;28;20028;-73
2021/12/10 11:31:03;;;;;;;3.55;1.52;;;6.60;84.30;;;;;;5094006;28;20020;-74
2021/12/10 11:33:31;;;;;;;3.28;1.33;;;6.60;84.30;;;;;;5094157;28;20483;-74
2021/12/10 11:36:02;;;;;;;3.53;1.38;;;6.70;84.10;;;;;;5093939;28;20035;-74
2021/12/10 11:38:32;;;;;;;3.33;1.60;;;6.70;83.90;;;;;;5095316;28;20391;-74
2021/12/10 11:41:09;;;;;;;5.72;1.70;;;6.70;83.80;;;;;;5095202;28;20028;-74
2021/12/10 11:48:43;;;;;;;4.72;1.60;;;6.80;83.70;;;;;;5095004;28;20491;-74
2021/12/10 11:51:18;;;;;;;3.75;1.42;;;6.80;83.70;;;;;;5094926;28;20024;-74
2021/12/10 11:53:52;;;;;;;4.10;1.52;;;6.80;83.60;;;;;;5094751;28;20095;-74
2021/12/10 11:56:29;;;;;;;3.95;1.60;;;6.80;83.60;;;;;;5093572;28;20057;-74
2021/12/10 11:59:23;;;;;;;5.70;1.85;;;6.80;83.50;;;;;;5094705;28;20487;-74
2021/12/10 12:02:09;;;;;;;3.35;1.83;;;6.80;83.30;;;;;;5093446;28;20035;-75
2021/12/10 12:04:39;;;;;;;3.03;1.38;;;6.80;83.10;;;;;;5094805;28;20085;-74
2021/12/10 12:07:30;;;;;;;3.08;1.52;;;6.80;83.10;;;;;;5093339;28;20031;-74
2021/12/10 12:10:02;;;;;;;7.18;2.20;;;6.80;82.80;;;;;;5093225;28;20032;-74
2021/12/10 12:12:38;;;;;;;4.65;1.85;;;6.90;82.80;;;;;;5093012;28;20028;-74
2021/12/10 12:15:19;;;;;;;2.65;1.60;;;6.90;82.60;;;;;;5094623;28;20383;-75
2021/12/10 12:17:49;;;;;;;3.80;1.95;;;6.90;82.50;;;;;;5093442;28;20450;-74
2021/12/10 12:20:49;;;;;;;4.07;1.90;;;6.90;82.40;;;;;;5093430;28;20035;-74
2021/12/10 12:26:14;;;;;;;4.82;1.90;;;6.80;82.10;;;;;;5094305;28;20456;-74
2021/12/10 12:28:49;;;;;;;6.05;2.00;;;6.90;82.10;;;;;;5092837;28;20108;-74
2021/12/10 12:31:21;;;;;;;6.68;2.25;;;6.90;82.00;;;;;;5093945;28;20027;-75
2021/12/10 12:34:07;;;;;;;7.78;2.67;;;6.80;81.80;;;;;;5093096;28;20499;-74
2021/12/10 12:36:35;;;;;;;7.90;2.53;;;6.90;81.70;;;;;;5092540;28;20576;-75
2021/12/10 12:39:05;;;;;;;5.75;2.35;;;6.90;81.60;;;;;;5092683;28;20573;-74
2021/12/10 12:41:41;;;;;;;6.10;2.50;;;6.90;81.50;;;;;;5092467;28;20035;-74
2021/12/10 12:44:09;;;;;;;6.90;2.25;;;6.90;82.10;;;;;;5093712;28;20101;-74
2021/12/10 12:46:56;;;;;;;3.90;2.10;;;6.90;81.40;;;;;;5092369;28;20039;-74
2021/12/10 12:49:22;;;;;;;7.07;2.05;;;6.90;81.20;;;;;;5093728;28;20031;-74
2021/12/10 12:52:12;;;;;;;3.38;1.70;;;6.90;81.20;;;;;;5092337;28;20601;-74
2021/12/10 12:54:59;;;;;;;4.32;1.63;;;6.90;81.10;;;;;;5093593;28;20032;-75
2021/12/10 12:57:45;;;;;;;4.00;1.77;;;6.80;81.10;;;;;;5092425;28;20028;-75
2021/12/10 13:00:18;;;;;;;4.05;1.88;;;6.80;81.10;;;;;;5093598;28;20024;-75
2021/12/10 13:02:47;;;;;;;5.05;2.08;;;6.80;81.10;;;;;;5093632;28;20024;-75
2021/12/10 13:05:12;;;;;;;7.20;2.03;;;6.90;81.10;;;;;;5091933;28;20506;-75
2021/12/10 13:07:38;;;;;;;3.97;1.70;;;6.90;81.00;;;;;;5093238;28;20032;-74
2021/12/10 13:10:08;;;;;;;3.40;1.50;;;6.90;81.00;;;;;;5092123;28;20024;-76
2021/12/10 13:13:06;;;;;;;4.25;1.60;;;6.90;81.00;;;;;;5092030;28;20028;-75
2021/12/10 13:15:33;;;;;;;4.95;2.05;;;6.90;80.80;;;;;;5091866;28;20028;-74
2021/12/10 13:18:05;;;;;;;4.25;1.70;;;6.90;80.80;;;;;;5091918;28;20115;-75
2021/12/10 13:20:35;;;;;;;3.78;1.92;;;6.90;80.80;;;;;;5092067;28;20016;-75
2021/12/10 13:23:08;;;;;;;5.63;2.33;;;7.00;80.80;;;;;;5091766;28;20028;-74
2021/12/10 13:25:36;;;;;;;5.32;1.73;;;7.00;80.60;;;;;;5093192;28;20027;-74
2021/12/10 13:28:03;;;;;;;3.92;1.70;;;7.00;80.60;;;;;;5093142;28;20028;-74
2021/12/10 13:30:35;;;;;;;5.70;1.90;;;7.00;80.70;;;;;;5091883;28;20039;-74
2021/12/10 13:33:03;;;;;;;3.22;1.60;;;7.00;80.60;;;;;;5093192;28;20024;-75
2021/12/10 13:35:30;;;;;;;4.72;1.52;;;6.90;80.60;;;;;;5091836;28;20028;-74
2021/12/10 13:37:59;;;;;;;4.10;1.70;;;7.00;80.80;;;;;;5091810;28;20392;-75
2021/12/10 13:40:27;;;;;;;6.45;1.52;;;7.00;80.80;;;;;;5091793;28;20031;-75